ACA87 CYUL-KRDU
Flight info
| Callsign | ACA87 |
|---|---|
| Flight time | 2h 0m |
| Altitude | 36000 |
| Route | FAWNS DCT BUGSY DCT SYR DCT AML DCT GVE DCT MELTN ALDAN4 |
| Aircraft | B38M/M-SDE1FGHILORVWXY/HB1 |
Departure
| Time | 2026-05-06 22:17 |
|---|---|
| Airport | Montreal / Pierre Elliott Trudeau International Airport (CYUL) |
Arrival
| Time | 2026-05-07 00:17 |
|---|---|
| Airport | Raleigh-Durham International Airport (KRDU) |
| Time | Latitude | Longitude | Altitude | Speed | Heading |
|---|---|---|---|---|---|
| 2026-05-06 21:31 | 45.45670 | -73.75431 | 107 ft | 0 kts | 117° |
| 2026-05-06 21:32 | 45.45619 | -73.75464 | 106 ft | 0 kts | 118° |
| 2026-05-06 21:56 | 45.45628 | -73.75487 | 107 ft | 4 kts | 118° |
| 2026-05-06 21:56 | 45.45640 | -73.75521 | 105 ft | 4 kts | 118° |
| 2026-05-06 21:56 | 45.45653 | -73.75555 | 105 ft | 3 kts | 118° |
| 2026-05-06 21:57 | 45.45656 | -73.75563 | 106 ft | 2 kts | 118° |
| 2026-05-06 22:03 | 45.45654 | -73.75558 | 106 ft | 1 kts | 114° |
| 2026-05-06 22:03 | 45.45654 | -73.75536 | 107 ft | 3 kts | 72° |
| 2026-05-06 22:03 | 45.45671 | -73.75509 | 107 ft | 4 kts | 38° |
| 2026-05-06 22:04 | 45.45701 | -73.75487 | 107 ft | 6 kts | 28° |
| 2026-05-06 22:04 | 45.45746 | -73.75480 | 107 ft | 8 kts | 335° |
| 2026-05-06 22:04 | 45.45760 | -73.75551 | 107 ft | 9 kts | 260° |
| 2026-05-06 22:04 | 45.45741 | -73.75642 | 107 ft | 10 kts | 254° |
| 2026-05-06 22:05 | 45.45724 | -73.75749 | 107 ft | 12 kts | 275° |
| 2026-05-06 22:05 | 45.45740 | -73.75806 | 107 ft | 1 kts | 304° |
| 2026-05-06 22:05 | 45.45746 | -73.75817 | 107 ft | 2 kts | 308° |
| 2026-05-06 22:05 | 45.45760 | -73.75843 | 107 ft | 5 kts | 307° |
| 2026-05-06 22:06 | 45.45788 | -73.75893 | 107 ft | 8 kts | 308° |
| 2026-05-06 22:06 | 45.45845 | -73.75935 | 107 ft | 11 kts | 346° |
| 2026-05-06 22:06 | 45.45921 | -73.75952 | 107 ft | 11 kts | 356° |
| 2026-05-06 22:06 | 45.46000 | -73.75957 | 107 ft | 12 kts | 359° |
| 2026-05-06 22:07 | 45.46092 | -73.75955 | 106 ft | 15 kts | 15° |
| 2026-05-06 22:07 | 45.46127 | -73.75835 | 103 ft | 13 kts | 89° |
| 2026-05-06 22:07 | 45.46130 | -73.75705 | 104 ft | 13 kts | 88° |
| 2026-05-06 22:07 | 45.46134 | -73.75571 | 104 ft | 14 kts | 87° |
| 2026-05-06 22:08 | 45.46139 | -73.75427 | 104 ft | 12 kts | 88° |
| 2026-05-06 22:08 | 45.46142 | -73.75299 | 103 ft | 14 kts | 88° |
| 2026-05-06 22:08 | 45.46146 | -73.75163 | 104 ft | 13 kts | 87° |
| 2026-05-06 22:08 | 45.46150 | -73.75038 | 106 ft | 12 kts | 88° |
| 2026-05-06 22:09 | 45.46154 | -73.74913 | 107 ft | 13 kts | 88° |
| 2026-05-06 22:09 | 45.46158 | -73.74776 | 106 ft | 15 kts | 87° |
| 2026-05-06 22:09 | 45.46159 | -73.74622 | 106 ft | 16 kts | 102° |
| 2026-05-06 22:09 | 45.46128 | -73.74494 | 106 ft | 12 kts | 89° |
| 2026-05-06 22:10 | 45.46132 | -73.74365 | 106 ft | 14 kts | 87° |
| 2026-05-06 22:10 | 45.46136 | -73.74222 | 106 ft | 15 kts | 87° |
| 2026-05-06 22:10 | 45.46143 | -73.74074 | 106 ft | 15 kts | 74° |
| 2026-05-06 22:10 | 45.46211 | -73.73964 | 107 ft | 15 kts | 42° |
| 2026-05-06 22:11 | 45.46290 | -73.73859 | 108 ft | 16 kts | 43° |
| 2026-05-06 22:11 | 45.46370 | -73.73753 | 110 ft | 16 kts | 41° |
| 2026-05-06 22:11 | 45.46455 | -73.73645 | 109 ft | 16 kts | 44° |
| 2026-05-06 22:11 | 45.46539 | -73.73533 | 111 ft | 17 kts | 43° |
| 2026-05-06 22:12 | 45.46627 | -73.73418 | 112 ft | 17 kts | 43° |
| 2026-05-06 22:12 | 45.46717 | -73.73299 | 114 ft | 18 kts | 43° |
| 2026-05-06 22:12 | 45.46809 | -73.73177 | 116 ft | 18 kts | 41° |
| 2026-05-06 22:12 | 45.46892 | -73.73070 | 116 ft | 14 kts | 43° |
| 2026-05-06 22:13 | 45.46967 | -73.72971 | 117 ft | 15 kts | 43° |
| 2026-05-06 22:13 | 45.47046 | -73.72868 | 119 ft | 16 kts | 43° |
| 2026-05-06 22:13 | 45.47129 | -73.72759 | 119 ft | 17 kts | 43° |
| 2026-05-06 22:13 | 45.47217 | -73.72643 | 119 ft | 18 kts | 41° |
| 2026-05-06 22:14 | 45.47309 | -73.72517 | 119 ft | 19 kts | 41° |
| 2026-05-06 22:14 | 45.47406 | -73.72396 | 121 ft | 18 kts | 43° |
| 2026-05-06 22:14 | 45.47503 | -73.72270 | 119 ft | 19 kts | 43° |
| 2026-05-06 22:14 | 45.47603 | -73.72138 | 120 ft | 20 kts | 42° |
| 2026-05-06 22:15 | 45.47706 | -73.72003 | 122 ft | 20 kts | 42° |
| 2026-05-06 22:15 | 45.47792 | -73.71890 | 122 ft | 12 kts | 43° |
| 2026-05-06 22:15 | 45.47801 | -73.71794 | 125 ft | 8 kts | 118° |
| 2026-05-06 22:15 | 45.47774 | -73.71736 | 124 ft | 7 kts | 125° |
| 2026-05-06 22:16 | 45.47742 | -73.71675 | 126 ft | 8 kts | 131° |
| 2026-05-06 22:16 | 45.47702 | -73.71628 | 127 ft | 7 kts | 159° |
| 2026-05-06 22:16 | 45.47661 | -73.71658 | 126 ft | 8 kts | 221° |
| 2026-05-06 22:16 | 45.47522 | -73.71841 | 124 ft | 65 kts | 222° |
| 2026-05-06 22:17 | 45.46986 | -73.72543 | 118 ft | 140 kts | 222° |
| 2026-05-06 22:17 | 45.46119 | -73.73679 | 246 ft | 191 kts | 223° |
| 2026-05-06 22:17 | 45.45094 | -73.75045 | 1049 ft | 209 kts | 224° |
| 2026-05-06 22:17 | 45.44004 | -73.76493 | 2112 ft | 216 kts | 224° |
| 2026-05-06 22:18 | 45.42861 | -73.77989 | 3145 ft | 230 kts | 224° |
| 2026-05-06 22:18 | 45.41639 | -73.79500 | 4143 ft | 242 kts | 217° |
| 2026-05-06 22:18 | 45.40068 | -73.80654 | 4910 ft | 259 kts | 207° |
| 2026-05-06 22:18 | 45.38416 | -73.81750 | 5891 ft | 262 kts | 209° |
| 2026-05-06 22:19 | 45.36795 | -73.82855 | 6920 ft | 262 kts | 210° |
| 2026-05-06 22:19 | 45.35165 | -73.83980 | 8026 ft | 258 kts | 211° |
| 2026-05-06 22:19 | 45.33563 | -73.85097 | 9141 ft | 255 kts | 211° |
| 2026-05-06 22:19 | 45.31977 | -73.86208 | 10185 ft | 254 kts | 212° |
| 2026-05-06 22:20 | 45.30354 | -73.87349 | 10727 ft | 270 kts | 212° |
| 2026-05-06 22:20 | 45.28582 | -73.88595 | 11150 ft | 289 kts | 211° |
| 2026-05-06 22:20 | 45.26763 | -73.89875 | 11677 ft | 301 kts | 211° |
| 2026-05-06 22:20 | 45.24851 | -73.91217 | 12266 ft | 312 kts | 211° |
| 2026-05-06 22:21 | 45.22891 | -73.92593 | 13025 ft | 316 kts | 211° |
| 2026-05-06 22:21 | 45.20913 | -73.93980 | 13796 ft | 319 kts | 211° |
| 2026-05-06 22:21 | 45.18909 | -73.95383 | 14465 ft | 322 kts | 211° |
| 2026-05-06 22:21 | 45.16893 | -73.96795 | 15164 ft | 324 kts | 211° |
| 2026-05-06 22:22 | 45.14865 | -73.98213 | 15842 ft | 327 kts | 211° |
| 2026-05-06 22:22 | 45.12811 | -73.99649 | 16481 ft | 330 kts | 211° |
| 2026-05-06 22:22 | 45.10744 | -74.01093 | 17124 ft | 333 kts | 211° |
| 2026-05-06 22:22 | 45.08662 | -74.02546 | 17764 ft | 336 kts | 211° |
| 2026-05-06 22:23 | 45.06557 | -74.04013 | 18358 ft | 339 kts | 211° |
| 2026-05-06 22:23 | 45.04437 | -74.05490 | 18898 ft | 341 kts | 211° |
| 2026-05-06 22:23 | 45.02293 | -74.06983 | 19434 ft | 344 kts | 211° |
| 2026-05-06 22:23 | 45.00131 | -74.08457 | 19945 ft | 348 kts | 206° |
| 2026-05-06 22:24 | 44.97736 | -74.09242 | 20518 ft | 358 kts | 194° |
| 2026-05-06 22:24 | 44.95260 | -74.09750 | 20994 ft | 361 kts | 194° |
| 2026-05-06 22:24 | 44.92760 | -74.10255 | 21517 ft | 364 kts | 194° |
| 2026-05-06 22:24 | 44.90246 | -74.10745 | 22022 ft | 366 kts | 194° |
| 2026-05-06 22:25 | 44.87711 | -74.11230 | 22514 ft | 369 kts | 194° |
| 2026-05-06 22:25 | 44.85157 | -74.11714 | 23014 ft | 372 kts | 194° |
| 2026-05-06 22:25 | 44.82577 | -74.12201 | 23492 ft | 375 kts | 193° |
| 2026-05-06 22:25 | 44.79986 | -74.12690 | 23882 ft | 377 kts | 193° |
| 2026-05-06 22:26 | 44.77384 | -74.13180 | 24278 ft | 380 kts | 194° |
| 2026-05-06 22:26 | 44.74753 | -74.13708 | 24656 ft | 380 kts | 198° |
| 2026-05-06 22:26 | 44.72327 | -74.15017 | 25017 ft | 372 kts | 215° |
| 2026-05-06 22:26 | 44.70296 | -74.17247 | 25293 ft | 373 kts | 224° |
| 2026-05-06 22:27 | 44.68364 | -74.19703 | 25673 ft | 375 kts | 225° |
| 2026-05-06 22:27 | 44.67098 | -74.21359 | 25926 ft | 376 kts | 226° |
| 2026-05-06 22:27 | 44.64547 | -74.24764 | 26439 ft | 379 kts | 226° |
| 2026-05-06 22:27 | 44.62636 | -74.27344 | 26832 ft | 382 kts | 227° |
| 2026-05-06 22:28 | 44.60728 | -74.29938 | 27181 ft | 384 kts | 227° |
| 2026-05-06 22:28 | 44.59460 | -74.31664 | 27411 ft | 385 kts | 227° |
| 2026-05-06 22:28 | 44.56878 | -74.35181 | 27903 ft | 388 kts | 227° |
| 2026-05-06 22:28 | 44.54940 | -74.37817 | 28247 ft | 390 kts | 227° |
| 2026-05-06 22:29 | 44.52981 | -74.40482 | 28584 ft | 392 kts | 227° |
| 2026-05-06 22:29 | 44.51018 | -74.43148 | 28910 ft | 394 kts | 228° |
| 2026-05-06 22:29 | 44.49037 | -74.45837 | 29260 ft | 396 kts | 228° |
| 2026-05-06 22:29 | 44.47728 | -74.47612 | 29500 ft | 398 kts | 228° |
| 2026-05-06 22:30 | 44.45731 | -74.50317 | 29817 ft | 400 kts | 228° |
| 2026-05-06 22:30 | 44.43727 | -74.53029 | 30089 ft | 402 kts | 228° |
| 2026-05-06 22:30 | 44.41714 | -74.55751 | 30391 ft | 403 kts | 228° |
| 2026-05-06 22:30 | 44.39701 | -74.58470 | 30806 ft | 401 kts | 229° |
| 2026-05-06 22:31 | 44.37710 | -74.61156 | 31214 ft | 399 kts | 229° |
| 2026-05-06 22:31 | 44.35716 | -74.63846 | 31618 ft | 397 kts | 229° |
| 2026-05-06 22:31 | 44.33739 | -74.66507 | 32022 ft | 395 kts | 229° |
| 2026-05-06 22:31 | 44.31762 | -74.69167 | 32463 ft | 392 kts | 229° |
| 2026-05-06 22:32 | 44.29804 | -74.71799 | 32882 ft | 390 kts | 229° |
| 2026-05-06 22:32 | 44.27849 | -74.74424 | 33289 ft | 388 kts | 229° |
| 2026-05-06 22:32 | 44.25912 | -74.77023 | 33674 ft | 386 kts | 229° |
| 2026-05-06 22:32 | 44.23971 | -74.79624 | 34022 ft | 385 kts | 230° |
| 2026-05-06 22:33 | 44.22041 | -74.82208 | 34297 ft | 384 kts | 230° |
| 2026-05-06 22:33 | 44.20116 | -74.84782 | 34535 ft | 384 kts | 230° |
| 2026-05-06 22:33 | 44.18185 | -74.87364 | 34786 ft | 384 kts | 230° |
| 2026-05-06 22:33 | 44.16260 | -74.89933 | 35037 ft | 384 kts | 230° |
| 2026-05-06 22:34 | 44.14335 | -74.92501 | 35275 ft | 384 kts | 230° |
| 2026-05-06 22:34 | 44.12405 | -74.95072 | 35510 ft | 384 kts | 230° |
| 2026-05-06 22:34 | 44.10479 | -74.97637 | 35746 ft | 384 kts | 230° |
| 2026-05-06 22:34 | 44.08550 | -75.00202 | 35860 ft | 384 kts | 230° |
| 2026-05-06 22:35 | 44.04691 | -75.05327 | 35858 ft | 382 kts | 230° |
| 2026-05-06 22:35 | 44.00849 | -75.10421 | 35860 ft | 382 kts | 230° |
| 2026-05-06 22:36 | 43.97017 | -75.15491 | 35856 ft | 382 kts | 230° |
| 2026-05-06 22:36 | 43.93163 | -75.20581 | 35859 ft | 382 kts | 230° |
| 2026-05-06 22:37 | 43.89314 | -75.25653 | 35855 ft | 381 kts | 230° |
| 2026-05-06 22:37 | 43.85471 | -75.30710 | 35854 ft | 381 kts | 230° |
| 2026-05-06 22:38 | 43.81629 | -75.35756 | 35863 ft | 380 kts | 230° |
| 2026-05-06 22:38 | 43.77791 | -75.40787 | 35855 ft | 380 kts | 230° |
| 2026-05-06 22:39 | 43.73954 | -75.45806 | 35857 ft | 380 kts | 230° |
| 2026-05-06 22:39 | 43.70117 | -75.50817 | 35862 ft | 380 kts | 230° |
| 2026-05-06 22:40 | 43.66306 | -75.55785 | 35867 ft | 379 kts | 230° |
| 2026-05-06 22:40 | 43.62437 | -75.60820 | 35869 ft | 379 kts | 230° |
| 2026-05-06 22:41 | 43.56692 | -75.68278 | 35867 ft | 380 kts | 230° |
| 2026-05-06 22:42 | 43.52846 | -75.73259 | 35873 ft | 380 kts | 230° |
| 2026-05-06 22:42 | 43.48989 | -75.78244 | 35874 ft | 380 kts | 230° |
| 2026-05-06 22:43 | 43.45131 | -75.83223 | 35880 ft | 380 kts | 230° |
| 2026-05-06 22:43 | 43.41271 | -75.88195 | 35888 ft | 380 kts | 230° |
| 2026-05-06 22:44 | 43.37408 | -75.93161 | 35901 ft | 381 kts | 230° |
| 2026-05-06 22:44 | 43.33536 | -75.98130 | 35910 ft | 381 kts | 230° |
| 2026-05-06 22:45 | 43.29658 | -76.03099 | 35913 ft | 381 kts | 230° |
| 2026-05-06 22:45 | 43.25782 | -76.08059 | 35914 ft | 382 kts | 230° |
| 2026-05-06 22:46 | 43.21888 | -76.13032 | 35915 ft | 383 kts | 230° |
| 2026-05-06 22:46 | 43.18006 | -76.17973 | 35919 ft | 385 kts | 229° |
| 2026-05-06 22:46 | 43.15745 | -76.20042 | 35900 ft | 401 kts | 213° |
| 2026-05-06 22:47 | 43.13038 | -76.21241 | 35937 ft | 415 kts | 204° |
| 2026-05-06 22:47 | 43.07410 | -76.23172 | 35923 ft | 419 kts | 204° |
| 2026-05-06 22:48 | 43.01712 | -76.25020 | 35919 ft | 421 kts | 203° |
| 2026-05-06 22:48 | 42.95992 | -76.26839 | 35916 ft | 422 kts | 203° |
| 2026-05-06 22:49 | 42.90269 | -76.28653 | 35913 ft | 424 kts | 203° |
| 2026-05-06 22:49 | 42.84523 | -76.30470 | 35904 ft | 424 kts | 203° |
| 2026-05-06 22:50 | 42.78753 | -76.32292 | 35907 ft | 425 kts | 203° |
| 2026-05-06 22:50 | 42.72992 | -76.34107 | 35914 ft | 425 kts | 203° |
| 2026-05-06 22:51 | 42.67222 | -76.35922 | 35913 ft | 426 kts | 203° |
| 2026-05-06 22:51 | 42.61444 | -76.37735 | 35906 ft | 426 kts | 202° |
| 2026-05-06 22:52 | 42.55663 | -76.39546 | 35917 ft | 427 kts | 202° |
| 2026-05-06 22:52 | 42.49875 | -76.41355 | 35910 ft | 427 kts | 202° |
| 2026-05-06 22:53 | 42.44065 | -76.43169 | 35917 ft | 428 kts | 202° |
| 2026-05-06 22:53 | 42.38262 | -76.44976 | 35909 ft | 429 kts | 202° |
| 2026-05-06 22:54 | 42.32432 | -76.46788 | 35907 ft | 430 kts | 202° |
| 2026-05-06 22:54 | 42.26593 | -76.48601 | 35905 ft | 431 kts | 202° |
| 2026-05-06 22:55 | 42.20751 | -76.50409 | 35898 ft | 432 kts | 202° |
| 2026-05-06 22:55 | 42.14897 | -76.52219 | 35903 ft | 433 kts | 202° |
| 2026-05-06 22:56 | 42.09012 | -76.54035 | 35917 ft | 434 kts | 202° |
| 2026-05-06 22:56 | 42.03121 | -76.55849 | 35915 ft | 435 kts | 201° |
| 2026-05-06 22:57 | 41.97202 | -76.57668 | 35903 ft | 437 kts | 201° |
| 2026-05-06 22:57 | 41.91308 | -76.59477 | 35905 ft | 438 kts | 201° |
| 2026-05-06 22:58 | 41.85319 | -76.61311 | 35905 ft | 439 kts | 201° |
| 2026-05-06 22:58 | 41.79396 | -76.63121 | 35904 ft | 440 kts | 201° |
| 2026-05-06 22:59 | 41.73381 | -76.64955 | 35900 ft | 441 kts | 201° |
| 2026-05-06 22:59 | 41.67396 | -76.66778 | 35899 ft | 442 kts | 201° |
| 2026-05-06 23:00 | 41.61432 | -76.68590 | 35895 ft | 443 kts | 201° |
| 2026-05-06 23:00 | 41.55369 | -76.70427 | 35897 ft | 443 kts | 201° |
| 2026-05-06 23:01 | 41.49384 | -76.72240 | 35876 ft | 445 kts | 201° |
| 2026-05-06 23:01 | 41.43349 | -76.74063 | 35895 ft | 445 kts | 201° |
| 2026-05-06 23:02 | 41.37306 | -76.75886 | 35898 ft | 445 kts | 201° |
| 2026-05-06 23:02 | 41.31262 | -76.77705 | 35893 ft | 445 kts | 201° |
| 2026-05-06 23:03 | 41.25210 | -76.79523 | 35896 ft | 446 kts | 201° |
| 2026-05-06 23:03 | 41.19160 | -76.81337 | 35890 ft | 446 kts | 201° |
| 2026-05-06 23:04 | 41.13106 | -76.83148 | 35888 ft | 446 kts | 201° |
| 2026-05-06 23:04 | 41.07034 | -76.84962 | 35881 ft | 447 kts | 201° |
| 2026-05-06 23:05 | 41.00967 | -76.86771 | 35862 ft | 447 kts | 201° |
| 2026-05-06 23:05 | 40.94892 | -76.88579 | 35875 ft | 448 kts | 201° |
| 2026-05-06 23:06 | 40.88813 | -76.90384 | 35872 ft | 448 kts | 201° |
| 2026-05-06 23:06 | 40.82720 | -76.92190 | 35876 ft | 448 kts | 201° |
| 2026-05-06 23:07 | 40.76637 | -76.93990 | 35872 ft | 449 kts | 201° |
| 2026-05-06 23:07 | 40.71578 | -76.95485 | 35882 ft | 449 kts | 201° |
| 2026-05-06 23:08 | 40.64457 | -76.97584 | 35862 ft | 448 kts | 201° |
| 2026-05-06 23:08 | 40.58371 | -76.99375 | 35855 ft | 448 kts | 202° |
| 2026-05-06 23:09 | 40.52286 | -77.01162 | 35853 ft | 447 kts | 202° |
| 2026-05-06 23:09 | 40.46210 | -77.02943 | 35854 ft | 447 kts | 202° |
| 2026-05-06 23:10 | 40.40139 | -77.04719 | 35853 ft | 446 kts | 202° |
| 2026-05-06 23:10 | 40.34086 | -77.06487 | 35860 ft | 446 kts | 202° |
| 2026-05-06 23:11 | 40.28029 | -77.08253 | 35862 ft | 445 kts | 202° |
| 2026-05-06 23:11 | 40.21988 | -77.10011 | 35864 ft | 445 kts | 202° |
| 2026-05-06 23:12 | 40.15941 | -77.11767 | 35852 ft | 445 kts | 202° |
| 2026-05-06 23:12 | 40.09892 | -77.13521 | 35852 ft | 445 kts | 202° |
| 2026-05-06 23:13 | 40.03850 | -77.15270 | 35853 ft | 445 kts | 202° |
| 2026-05-06 23:13 | 39.97808 | -77.17015 | 35852 ft | 445 kts | 202° |
| 2026-05-06 23:14 | 39.91751 | -77.18761 | 35858 ft | 445 kts | 202° |
| 2026-05-06 23:14 | 39.85703 | -77.20502 | 35851 ft | 445 kts | 202° |
| 2026-05-06 23:15 | 39.80680 | -77.21946 | 35859 ft | 445 kts | 202° |
| 2026-05-06 23:15 | 39.74626 | -77.23682 | 35857 ft | 445 kts | 202° |
| 2026-05-06 23:16 | 39.68579 | -77.25414 | 35865 ft | 445 kts | 203° |
| 2026-05-06 23:16 | 39.62526 | -77.27144 | 35863 ft | 445 kts | 203° |
| 2026-05-06 23:17 | 39.56472 | -77.28872 | 35869 ft | 445 kts | 202° |
| 2026-05-06 23:17 | 39.50431 | -77.30592 | 35873 ft | 445 kts | 203° |
| 2026-05-06 23:18 | 39.44368 | -77.32316 | 35877 ft | 445 kts | 202° |
| 2026-05-06 23:18 | 39.38310 | -77.34035 | 35870 ft | 446 kts | 203° |
| 2026-05-06 23:19 | 39.32258 | -77.35750 | 35871 ft | 445 kts | 203° |
| 2026-05-06 23:19 | 39.26193 | -77.37466 | 35873 ft | 446 kts | 203° |
| 2026-05-06 23:20 | 39.20146 | -77.39174 | 35879 ft | 446 kts | 203° |
| 2026-05-06 23:20 | 39.14162 | -77.40861 | 35872 ft | 446 kts | 203° |
| 2026-05-06 23:21 | 39.08019 | -77.42590 | 35870 ft | 446 kts | 203° |
| 2026-05-06 23:21 | 39.01977 | -77.44287 | 35849 ft | 446 kts | 203° |
| 2026-05-06 23:22 | 38.95898 | -77.45992 | 35854 ft | 446 kts | 203° |
| 2026-05-06 23:22 | 38.93021 | -77.47224 | 35842 ft | 424 kts | 218° |
| 2026-05-06 23:22 | 38.90489 | -77.49064 | 35861 ft | 421 kts | 219° |
| 2026-05-06 23:23 | 38.85389 | -77.52796 | 35857 ft | 421 kts | 220° |
| 2026-05-06 23:23 | 38.80337 | -77.56579 | 35852 ft | 420 kts | 220° |
| 2026-05-06 23:24 | 38.75315 | -77.60355 | 35858 ft | 419 kts | 220° |
| 2026-05-06 23:24 | 38.70279 | -77.64138 | 35855 ft | 419 kts | 221° |
| 2026-05-06 23:25 | 38.65250 | -77.67911 | 35858 ft | 419 kts | 221° |
| 2026-05-06 23:25 | 38.60228 | -77.71672 | 35867 ft | 419 kts | 221° |
| 2026-05-06 23:26 | 38.55208 | -77.75425 | 35865 ft | 418 kts | 221° |
| 2026-05-06 23:26 | 38.50179 | -77.79179 | 35873 ft | 418 kts | 221° |
| 2026-05-06 23:27 | 38.45159 | -77.82919 | 35875 ft | 418 kts | 221° |
| 2026-05-06 23:27 | 38.40135 | -77.86657 | 35871 ft | 418 kts | 221° |
| 2026-05-06 23:28 | 38.35123 | -77.90380 | 35869 ft | 417 kts | 221° |
| 2026-05-06 23:28 | 38.30138 | -77.94077 | 35864 ft | 417 kts | 221° |
| 2026-05-06 23:29 | 38.25115 | -77.97796 | 35866 ft | 417 kts | 221° |
| 2026-05-06 23:29 | 38.20099 | -78.01504 | 35862 ft | 417 kts | 221° |
| 2026-05-06 23:30 | 38.15077 | -78.05210 | 35866 ft | 417 kts | 221° |
| 2026-05-06 23:30 | 38.10053 | -78.08912 | 35862 ft | 417 kts | 221° |
| 2026-05-06 23:31 | 38.05038 | -78.12601 | 35707 ft | 415 kts | 223° |
| 2026-05-06 23:31 | 38.02589 | -78.14394 | 35909 ft | 401 kts | 223° |
| 2026-05-06 23:31 | 38.00058 | -78.15961 | 35876 ft | 409 kts | 216° |
| 2026-05-06 23:32 | 37.94858 | -78.18748 | 35876 ft | 404 kts | 217° |
| 2026-05-06 23:32 | 37.89673 | -78.21503 | 35882 ft | 405 kts | 217° |
| 2026-05-06 23:33 | 37.84465 | -78.24260 | 35879 ft | 406 kts | 217° |
| 2026-05-06 23:33 | 37.79248 | -78.27016 | 35874 ft | 406 kts | 217° |
| 2026-05-06 23:34 | 37.74041 | -78.29764 | 35876 ft | 406 kts | 217° |
| 2026-05-06 23:34 | 37.71437 | -78.31135 | 35648 ft | 402 kts | 217° |
| 2026-05-06 23:34 | 37.68855 | -78.32494 | 35077 ft | 400 kts | 216° |
| 2026-05-06 23:34 | 37.66317 | -78.33828 | 34829 ft | 390 kts | 217° |
| 2026-05-06 23:35 | 37.63856 | -78.35120 | 34678 ft | 377 kts | 217° |
| 2026-05-06 23:35 | 37.61439 | -78.36394 | 34361 ft | 381 kts | 217° |
| 2026-05-06 23:35 | 37.58962 | -78.37698 | 33827 ft | 387 kts | 216° |
| 2026-05-06 23:35 | 37.56462 | -78.39007 | 33262 ft | 390 kts | 216° |
| 2026-05-06 23:36 | 37.53959 | -78.40318 | 32775 ft | 389 kts | 215° |
| 2026-05-06 23:36 | 37.51471 | -78.41621 | 32315 ft | 386 kts | 214° |
| 2026-05-06 23:36 | 37.48996 | -78.42916 | 31834 ft | 384 kts | 214° |
| 2026-05-06 23:36 | 37.46545 | -78.44199 | 31373 ft | 381 kts | 213° |
| 2026-05-06 23:37 | 37.44102 | -78.45476 | 30921 ft | 378 kts | 213° |
| 2026-05-06 23:37 | 37.41687 | -78.46738 | 30458 ft | 374 kts | 212° |
| 2026-05-06 23:37 | 37.39289 | -78.47989 | 30012 ft | 372 kts | 212° |
| 2026-05-06 23:37 | 37.36912 | -78.49231 | 29503 ft | 369 kts | 212° |
| 2026-05-06 23:38 | 37.34549 | -78.50464 | 29025 ft | 369 kts | 212° |
| 2026-05-06 23:38 | 37.32321 | -78.51977 | 28552 ft | 355 kts | 228° |
| 2026-05-06 23:38 | 37.30870 | -78.54361 | 28157 ft | 337 kts | 251° |
| 2026-05-06 23:38 | 37.30484 | -78.57179 | 27857 ft | 326 kts | 274° |
| 2026-05-06 23:39 | 37.30931 | -78.59930 | 27729 ft | 318 kts | 280° |
| 2026-05-06 23:39 | 37.31478 | -78.62569 | 27635 ft | 306 kts | 280° |
| 2026-05-06 23:39 | 37.32022 | -78.65172 | 27521 ft | 314 kts | 280° |
| 2026-05-06 23:39 | 37.32579 | -78.67860 | 27408 ft | 314 kts | 280° |
| 2026-05-06 23:40 | 37.33127 | -78.70478 | 27313 ft | 309 kts | 280° |
| 2026-05-06 23:40 | 37.33680 | -78.73136 | 27183 ft | 320 kts | 280° |
| 2026-05-06 23:40 | 37.34244 | -78.75875 | 27052 ft | 326 kts | 280° |
| 2026-05-06 23:40 | 37.34813 | -78.78647 | 26927 ft | 328 kts | 280° |
| 2026-05-06 23:41 | 37.35382 | -78.81423 | 26911 ft | 328 kts | 280° |
| 2026-05-06 23:41 | 37.35953 | -78.84198 | 26921 ft | 328 kts | 280° |
| 2026-05-06 23:41 | 37.36526 | -78.86974 | 26915 ft | 328 kts | 281° |
| 2026-05-06 23:41 | 37.37100 | -78.89743 | 26921 ft | 328 kts | 280° |
| 2026-05-06 23:42 | 37.37671 | -78.92488 | 26922 ft | 328 kts | 280° |
| 2026-05-06 23:42 | 37.38255 | -78.95289 | 26924 ft | 328 kts | 281° |
| 2026-05-06 23:42 | 37.38837 | -78.98062 | 26927 ft | 328 kts | 281° |
| 2026-05-06 23:42 | 37.39420 | -79.00828 | 26927 ft | 327 kts | 281° |
| 2026-05-06 23:43 | 37.39998 | -79.03560 | 26928 ft | 327 kts | 281° |
| 2026-05-06 23:43 | 37.40584 | -79.06324 | 26934 ft | 327 kts | 281° |
| 2026-05-06 23:43 | 37.41171 | -79.09087 | 26928 ft | 327 kts | 281° |
| 2026-05-06 23:43 | 37.41761 | -79.11847 | 26932 ft | 327 kts | 281° |
| 2026-05-06 23:44 | 37.42356 | -79.14609 | 26938 ft | 327 kts | 281° |
| 2026-05-06 23:44 | 37.42948 | -79.17356 | 26933 ft | 326 kts | 281° |
| 2026-05-06 23:44 | 37.43548 | -79.20107 | 26934 ft | 326 kts | 281° |
| 2026-05-06 23:44 | 37.44154 | -79.22864 | 26933 ft | 326 kts | 281° |
| 2026-05-06 23:45 | 37.44760 | -79.25608 | 26933 ft | 326 kts | 281° |
| 2026-05-06 23:45 | 37.45372 | -79.28359 | 26927 ft | 326 kts | 281° |
| 2026-05-06 23:45 | 37.45988 | -79.31103 | 26925 ft | 326 kts | 281° |
| 2026-05-06 23:45 | 37.46604 | -79.33837 | 26931 ft | 325 kts | 281° |
| 2026-05-06 23:46 | 37.47219 | -79.36584 | 26930 ft | 325 kts | 281° |
| 2026-05-06 23:46 | 37.47832 | -79.39316 | 26919 ft | 325 kts | 281° |
| 2026-05-06 23:46 | 37.48460 | -79.42050 | 26914 ft | 325 kts | 281° |
| 2026-05-06 23:46 | 37.49090 | -79.44778 | 26915 ft | 324 kts | 281° |
| 2026-05-06 23:47 | 37.49716 | -79.47502 | 26905 ft | 324 kts | 280° |
| 2026-05-06 23:47 | 37.49954 | -79.50253 | 26880 ft | 312 kts | 261° |
| 2026-05-06 23:47 | 37.49170 | -79.52720 | 26781 ft | 305 kts | 237° |
| 2026-05-06 23:47 | 37.47491 | -79.54370 | 26675 ft | 318 kts | 212° |
| 2026-05-06 23:48 | 37.45201 | -79.54851 | 26568 ft | 358 kts | 187° |
| 2026-05-06 23:48 | 37.42659 | -79.53986 | 26419 ft | 403 kts | 164° |
| 2026-05-06 23:48 | 37.40285 | -79.51914 | 26296 ft | 426 kts | 151° |
| 2026-05-06 23:48 | 37.37980 | -79.49523 | 26158 ft | 431 kts | 151° |
| 2026-05-06 23:49 | 37.35659 | -79.47128 | 25845 ft | 431 kts | 151° |
| 2026-05-06 23:49 | 37.33352 | -79.44756 | 25479 ft | 429 kts | 150° |
| 2026-05-06 23:49 | 37.31028 | -79.42395 | 25113 ft | 427 kts | 151° |
| 2026-05-06 23:49 | 37.28718 | -79.40065 | 24930 ft | 427 kts | 150° |
| 2026-05-06 23:50 | 37.26580 | -79.37405 | 24902 ft | 443 kts | 131° |
| 2026-05-06 23:50 | 37.24812 | -79.30050 | 24181 ft | 456 kts | 92° |
| 2026-05-06 23:50 | 37.24772 | -79.26030 | 23527 ft | 463 kts | 91° |
| 2026-05-06 23:51 | 37.24738 | -79.21990 | 23078 ft | 460 kts | 91° |
| 2026-05-06 23:51 | 37.24702 | -79.18007 | 22938 ft | 456 kts | 91° |
| 2026-05-06 23:51 | 37.24665 | -79.14019 | 22929 ft | 457 kts | 91° |
| 2026-05-06 23:51 | 37.24628 | -79.10031 | 22932 ft | 458 kts | 91° |
| 2026-05-06 23:52 | 37.24590 | -79.06026 | 22930 ft | 458 kts | 91° |
| 2026-05-06 23:52 | 37.24552 | -79.02043 | 22923 ft | 457 kts | 92° |
| 2026-05-06 23:52 | 37.24043 | -78.98143 | 22893 ft | 450 kts | 114° |
| 2026-05-06 23:52 | 37.22532 | -78.94800 | 22907 ft | 434 kts | 138° |
| 2026-05-06 23:53 | 37.20310 | -78.92371 | 22930 ft | 422 kts | 152° |
| 2026-05-06 23:53 | 37.17953 | -78.90146 | 22899 ft | 424 kts | 150° |
| 2026-05-06 23:53 | 37.15604 | -78.87911 | 22913 ft | 424 kts | 150° |
| 2026-05-06 23:53 | 37.13259 | -78.85690 | 22904 ft | 424 kts | 150° |
| 2026-05-06 23:54 | 37.10899 | -78.83463 | 22906 ft | 424 kts | 150° |
| 2026-05-06 23:54 | 37.08446 | -78.81524 | 22858 ft | 406 kts | 166° |
| 2026-05-06 23:54 | 37.05791 | -78.80729 | 22201 ft | 384 kts | 188° |
| 2026-05-06 23:54 | 37.03245 | -78.81188 | 21401 ft | 360 kts | 208° |
| 2026-05-06 23:55 | 37.01057 | -78.82540 | 20760 ft | 345 kts | 217° |
| 2026-05-06 23:55 | 36.98844 | -78.83627 | 20331 ft | 348 kts | 203° |
| 2026-05-06 23:55 | 36.96489 | -78.84313 | 19983 ft | 348 kts | 201° |
| 2026-05-06 23:55 | 36.94120 | -78.84878 | 19624 ft | 347 kts | 199° |
| 2026-05-06 23:56 | 36.91724 | -78.85359 | 19262 ft | 347 kts | 198° |
| 2026-05-06 23:56 | 36.89335 | -78.85786 | 18902 ft | 346 kts | 197° |
| 2026-05-06 23:56 | 36.86955 | -78.86185 | 18541 ft | 345 kts | 197° |
| 2026-05-06 23:56 | 36.84578 | -78.86568 | 18177 ft | 344 kts | 196° |
| 2026-05-06 23:57 | 36.82203 | -78.86940 | 17772 ft | 342 kts | 196° |
| 2026-05-06 23:57 | 36.79881 | -78.87300 | 17433 ft | 339 kts | 196° |
| 2026-05-06 23:57 | 36.77521 | -78.87663 | 17083 ft | 336 kts | 195° |
| 2026-05-06 23:57 | 36.75207 | -78.88018 | 16735 ft | 334 kts | 195° |
| 2026-05-06 23:58 | 36.72914 | -78.88370 | 16381 ft | 331 kts | 195° |
| 2026-05-06 23:58 | 36.70636 | -78.88719 | 16035 ft | 328 kts | 195° |
| 2026-05-06 23:58 | 36.68405 | -78.89060 | 15695 ft | 326 kts | 195° |
| 2026-05-06 23:58 | 36.66890 | -78.89292 | 15468 ft | 324 kts | 195° |
| 2026-05-06 23:59 | 36.64657 | -78.89633 | 15128 ft | 322 kts | 195° |
| 2026-05-06 23:59 | 36.62443 | -78.89970 | 14783 ft | 320 kts | 194° |
| 2026-05-06 23:59 | 36.60232 | -78.90307 | 14458 ft | 318 kts | 194° |
| 2026-05-06 23:59 | 36.58044 | -78.90641 | 14139 ft | 317 kts | 194° |
| 2026-05-07 00:00 | 36.55856 | -78.90974 | 13819 ft | 315 kts | 194° |
| 2026-05-07 00:00 | 36.53692 | -78.91303 | 13461 ft | 314 kts | 194° |
| 2026-05-07 00:00 | 36.51529 | -78.91632 | 13102 ft | 312 kts | 194° |
| 2026-05-07 00:00 | 36.49384 | -78.91958 | 12771 ft | 309 kts | 193° |
| 2026-05-07 00:01 | 36.47258 | -78.92280 | 12449 ft | 303 kts | 193° |
| 2026-05-07 00:01 | 36.45209 | -78.92591 | 12237 ft | 288 kts | 194° |
| 2026-05-07 00:01 | 36.43281 | -78.92882 | 12129 ft | 274 kts | 194° |
| 2026-05-07 00:01 | 36.41373 | -78.93067 | 11893 ft | 280 kts | 182° |
| 2026-05-07 00:02 | 36.39459 | -78.92417 | 11450 ft | 293 kts | 158° |
| 2026-05-07 00:02 | 36.37834 | -78.90857 | 11097 ft | 300 kts | 140° |
| 2026-05-07 00:02 | 36.36368 | -78.89005 | 10618 ft | 302 kts | 140° |
| 2026-05-07 00:02 | 36.34890 | -78.87143 | 10073 ft | 307 kts | 140° |
| 2026-05-07 00:03 | 36.33302 | -78.85401 | 9626 ft | 297 kts | 157° |
| 2026-05-07 00:03 | 36.31411 | -78.84768 | 9241 ft | 274 kts | 190° |
| 2026-05-07 00:03 | 36.29720 | -78.85481 | 9043 ft | 245 kts | 224° |
| 2026-05-07 00:03 | 36.28707 | -78.87002 | 9034 ft | 220 kts | 240° |
| 2026-05-07 00:04 | 36.27898 | -78.88598 | 9026 ft | 216 kts | 240° |
| 2026-05-07 00:04 | 36.27106 | -78.90178 | 9030 ft | 216 kts | 240° |
| 2026-05-07 00:04 | 36.26319 | -78.91748 | 9041 ft | 215 kts | 240° |
| 2026-05-07 00:04 | 36.25538 | -78.93304 | 9027 ft | 214 kts | 240° |
| 2026-05-07 00:05 | 36.24702 | -78.94864 | 9009 ft | 216 kts | 230° |
| 2026-05-07 00:05 | 36.23380 | -78.95744 | 8972 ft | 227 kts | 193° |
| 2026-05-07 00:05 | 36.21784 | -78.95394 | 8996 ft | 246 kts | 161° |
| 2026-05-07 00:05 | 36.20369 | -78.94161 | 9044 ft | 260 kts | 140° |
| 2026-05-07 00:06 | 36.19381 | -78.92243 | 8913 ft | 275 kts | 109° |
| 2026-05-07 00:06 | 36.19246 | -78.89872 | 8715 ft | 276 kts | 88° |
| 2026-05-07 00:06 | 36.19273 | -78.87496 | 8642 ft | 276 kts | 92° |
| 2026-05-07 00:06 | 36.19259 | -78.85121 | 8398 ft | 278 kts | 92° |
| 2026-05-07 00:07 | 36.19231 | -78.82710 | 7886 ft | 281 kts | 92° |
| 2026-05-07 00:07 | 36.19197 | -78.80282 | 7372 ft | 282 kts | 92° |
| 2026-05-07 00:07 | 36.19160 | -78.77866 | 6899 ft | 281 kts | 92° |
| 2026-05-07 00:07 | 36.19125 | -78.75481 | 6556 ft | 272 kts | 92° |
| 2026-05-07 00:08 | 36.19094 | -78.73181 | 6388 ft | 264 kts | 92° |
| 2026-05-07 00:08 | 36.19059 | -78.70913 | 6260 ft | 263 kts | 92° |
| 2026-05-07 00:08 | 36.19020 | -78.68661 | 6130 ft | 262 kts | 92° |
| 2026-05-07 00:08 | 36.18941 | -78.66410 | 5967 ft | 260 kts | 102° |
| 2026-05-07 00:09 | 36.18178 | -78.64474 | 5595 ft | 246 kts | 140° |
| 2026-05-07 00:09 | 36.16904 | -78.63170 | 5313 ft | 235 kts | 150° |
| 2026-05-07 00:09 | 36.15600 | -78.61971 | 4995 ft | 231 kts | 150° |
| 2026-05-07 00:09 | 36.14324 | -78.60802 | 4687 ft | 226 kts | 151° |
| 2026-05-07 00:10 | 36.12952 | -78.60097 | 4282 ft | 208 kts | 183° |
| 2026-05-07 00:10 | 36.11558 | -78.60131 | 4146 ft | 191 kts | 191° |
| 2026-05-07 00:10 | 36.10282 | -78.60200 | 4069 ft | 177 kts | 190° |
| 2026-05-07 00:10 | 36.09083 | -78.60258 | 4003 ft | 172 kts | 191° |
| 2026-05-07 00:11 | 36.07886 | -78.60313 | 3962 ft | 172 kts | 190° |
| 2026-05-07 00:11 | 36.06697 | -78.60372 | 3918 ft | 171 kts | 191° |
| 2026-05-07 00:11 | 36.05509 | -78.60422 | 3881 ft | 170 kts | 191° |
| 2026-05-07 00:11 | 36.04324 | -78.60478 | 3825 ft | 171 kts | 192° |
| 2026-05-07 00:12 | 36.03258 | -78.60937 | 3737 ft | 159 kts | 220° |
| 2026-05-07 00:12 | 36.02402 | -78.61800 | 3730 ft | 158 kts | 225° |
| 2026-05-07 00:12 | 36.01592 | -78.62710 | 3654 ft | 157 kts | 227° |
| 2026-05-07 00:12 | 36.00803 | -78.63650 | 3573 ft | 157 kts | 228° |
| 2026-05-07 00:13 | 36.00031 | -78.64596 | 3528 ft | 156 kts | 228° |
| 2026-05-07 00:13 | 35.99268 | -78.65539 | 3464 ft | 155 kts | 227° |
| 2026-05-07 00:13 | 35.98523 | -78.66464 | 3326 ft | 150 kts | 228° |
| 2026-05-07 00:13 | 35.97797 | -78.67378 | 3008 ft | 148 kts | 230° |
| 2026-05-07 00:14 | 35.97090 | -78.68306 | 2646 ft | 147 kts | 229° |
| 2026-05-07 00:14 | 35.96384 | -78.69187 | 2362 ft | 145 kts | 227° |
| 2026-05-07 00:14 | 35.95648 | -78.70058 | 2084 ft | 147 kts | 226° |
| 2026-05-07 00:14 | 35.94928 | -78.70947 | 1890 ft | 146 kts | 229° |
| 2026-05-07 00:15 | 35.94241 | -78.71860 | 1769 ft | 143 kts | 228° |
| 2026-05-07 00:15 | 35.93548 | -78.72693 | 1499 ft | 133 kts | 225° |
| 2026-05-07 00:15 | 35.92901 | -78.73479 | 1276 ft | 130 kts | 227° |
| 2026-05-07 00:15 | 35.92253 | -78.74291 | 1111 ft | 135 kts | 223° |
| 2026-05-07 00:16 | 35.91573 | -78.75119 | 963 ft | 140 kts | 227° |
| 2026-05-07 00:16 | 35.90879 | -78.75968 | 823 ft | 141 kts | 222° |
| 2026-05-07 00:16 | 35.90184 | -78.76841 | 644 ft | 143 kts | 225° |
| 2026-05-07 00:16 | 35.89469 | -78.77710 | 467 ft | 145 kts | 225° |
| 2026-05-07 00:17 | 35.88821 | -78.78501 | 407 ft | 102 kts | 225° |
| 2026-05-07 00:17 | 35.88470 | -78.78934 | 395 ft | 50 kts | 225° |
| 2026-05-07 00:17 | 35.88324 | -78.79073 | 393 ft | 11 kts | 181° |
| 2026-05-07 00:17 | 35.88269 | -78.79056 | 391 ft | 6 kts | 139° |
| 2026-05-07 00:18 | 35.88252 | -78.79049 | 395 ft | 4 kts | 165° |
| 2026-05-07 00:18 | 35.88223 | -78.79056 | 395 ft | 5 kts | 203° |
| 2026-05-07 00:18 | 35.88204 | -78.79071 | 395 ft | 3 kts | 216° |
| 2026-05-07 00:18 | 35.88183 | -78.79096 | 394 ft | 5 kts | 226° |
| 2026-05-07 00:19 | 35.88157 | -78.79129 | 396 ft | 6 kts | 225° |
| 2026-05-07 00:19 | 35.88124 | -78.79170 | 394 ft | 8 kts | 225° |
| 2026-05-07 00:19 | 35.88080 | -78.79224 | 392 ft | 11 kts | 225° |
| 2026-05-07 00:19 | 35.88020 | -78.79298 | 393 ft | 14 kts | 225° |
| 2026-05-07 00:20 | 35.87977 | -78.79352 | 389 ft | 5 kts | 225° |
| 2026-05-07 00:20 | 35.87974 | -78.79355 | 390 ft | 0 kts | 225° |
| 2026-05-07 00:21 | 35.87970 | -78.79359 | 392 ft | 2 kts | 218° |
| 2026-05-07 00:21 | 35.87954 | -78.79363 | 394 ft | 2 kts | 159° |
| 2026-05-07 00:22 | 35.87938 | -78.79345 | 393 ft | 4 kts | 137° |
| 2026-05-07 00:22 | 35.87910 | -78.79319 | 392 ft | 4 kts | 142° |
| 2026-05-07 00:22 | 35.87888 | -78.79295 | 392 ft | 4 kts | 130° |
| 2026-05-07 00:22 | 35.87879 | -78.79280 | 392 ft | 3 kts | 128° |
| 2026-05-07 00:23 | 35.87873 | -78.79270 | 392 ft | 2 kts | 128° |
| 2026-05-07 00:23 | 35.87872 | -78.79270 | 392 ft | 0 kts | 128° |